Terminal Aerodrome Forecast
Issued by NWS

Home | Current Version | Previous Version | Text Only | Print | Product List | Glossary On
Versions: 1 2 3 4 5 6 7 8 9 10 11 12 13 14
000
FTUS42 KTAE 221700
TAFABY
TAF
KABY 221720Z 2218/2318 28008KT P6SM SCT040 BKN200
      TEMPO 2220/2224 VRB15G25KT 3SM TSRA BKN030CB BKN080
     FM230100 35005KT P6SM SCT200
     FM230900 05007KT P6SM BKN015
     FM231500 07008KT P6SM SCT020=

USA.gov is the U.S. government's official web portal to all federal, state and local government web resources and services.